Airfield :
LOGIN :

Register | Disclaimer

   EN    FR    IT 

 










Legend :    VFR   Marginal VFR   IFR   Intensive IFR   Very Intensive IFR
Visi :
Ceiling :
>= 8 km
>= 3000ft
5 to 8 km
1000 to 3000 ft
1500m to 5 km
500 to 1000 ft
800 to 1500m
200 to 500 ft
< 800m
< 200 ft
Symbols :   Thunderstorms  Fog  Heavy snow  Heavy precipitations  Wind > 20 kt
SIGMETs :     Misc.  Thunderstorms  Icing  Turbulence  Mountain Waves  Volcanic Ashes







- Airport Elevation : 26 ft


ETNT - Wittmundhaven AB

CURRENT METAR :
  • 240720Z 18008KT 2500 -DZ BR BKN002 11/11 Q1018 AMB RED TEMPO YLO

EXPIRED METARs :
  • 240620Z 18008KT 1800 R26/3800D -DZ BR BKN002 11/10 Q1019 AMB RED TEMPO YLO
  • 240525Z 17007KT 2000 -DZ BR BKN001 10/10 Q1019 RED RED TEMPO YLO
  • 240437Z 17006KT 3000 BR BKN002 10/10 Q1019 AMB AMB BECMG RED

TAF TAF ETNT
Valid from the 24 at 08:00 until the 24 at 17:00 UTC


240718Z 2408/2417 17008KT 1500 -DZ VV001 BKN200
BECMG 2408/2410 19010KT 2500 BR BKN004 BKN150 BY ETGL
No reported NOTAMs for that airfield.



MET'MAP, your aeronautical weather chart ! - Copyright ORBIFLY December 2007 - Disclaimer

ORBIFLY MET'MAP TEAM :

Programming & Development : Alexandra Zaïnal
Concept & Development : Baudouin d'Aumeries
Co-Development & Prog : Marc-Olivier Méhu
Technical & hardware support : Manuel Goepfert

Contact : metmap@orbifly.com




SOURCES & CREDITS :

   NOAA